sensor_id;sensor_type;location;lat;lon;timestamp;temperature;humidity
2465;DHT22;1244;54.326;10.074;2024-02-21T00:00:38;7.90;99.90
2465;DHT22;1244;54.326;10.074;2024-02-21T00:03:04;7.90;99.90
2465;DHT22;1244;54.326;10.074;2024-02-21T00:05:30;8.00;99.90
2465;DHT22;1244;54.326;10.074;2024-02-21T00:07:57;8.00;99.90
2465;DHT22;1244;54.326;10.074;2024-02-21T00:10:23;7.90;99.90
2465;DHT22;1244;54.326;10.074;2024-02-21T00:12:48;7.90;99.90
2465;DHT22;1244;54.326;10.074;2024-02-21T00:15:14;8.00;99.90
2465;DHT22;1244;54.326;10.074;2024-02-21T00:17:40;7.90;99.90
2465;DHT22;1244;54.326;10.074;2024-02-21T00:20:06;8.00;99.90
2465;DHT22;1244;54.326;10.074;2024-02-21T00:22:32;8.00;99.90
2465;DHT22;1244;54.326;10.074;2024-02-21T00:24:59;8.10;99.90
2465;DHT22;1244;54.326;10.074;2024-02-21T00:27:24;8.10;99.90
2465;DHT22;1244;54.326;10.074;2024-02-21T00:29:50;8.10;99.90
2465;DHT22;1244;54.326;10.074;2024-02-21T00:32:15;8.20;99.90
2465;DHT22;1244;54.326;10.074;2024-02-21T00:34:41;8.10;99.90
2465;DHT22;1244;54.326;10.074;2024-02-21T00:37:06;8.10;99.90
2465;DHT22;1244;54.326;10.074;2024-02-21T00:39:32;8.10;99.90
2465;DHT22;1244;54.326;10.074;2024-02-21T00:41:57;8.10;99.90
2465;DHT22;1244;54.326;10.074;2024-02-21T00:44:23;8.10;99.90
2465;DHT22;1244;54.326;10.074;2024-02-21T00:46:48;8.20;99.90
2465;DHT22;1244;54.326;10.074;2024-02-21T00:49:14;8.20;99.90
2465;DHT22;1244;54.326;10.074;2024-02-21T00:51:39;8.20;99.90
2465;DHT22;1244;54.326;10.074;2024-02-21T00:54:05;8.20;99.90
2465;DHT22;1244;54.326;10.074;2024-02-21T00:56:32;8.20;99.90
2465;DHT22;1244;54.326;10.074;2024-02-21T00:58:58;8.20;99.90
2465;DHT22;1244;54.326;10.074;2024-02-21T01:01:26;8.20;99.90
2465;DHT22;1244;54.326;10.074;2024-02-21T01:03:52;8.20;99.90
2465;DHT22;1244;54.326;10.074;2024-02-21T01:06:19;8.10;99.90
2465;DHT22;1244;54.326;10.074;2024-02-21T01:08:46;8.20;99.90
2465;DHT22;1244;54.326;10.074;2024-02-21T01:11:12;8.20;99.90
2465;DHT22;1244;54.326;10.074;2024-02-21T01:13:37;8.10;99.90
2465;DHT22;1244;54.326;10.074;2024-02-21T01:16:03;8.20;99.90
2465;DHT22;1244;54.326;10.074;2024-02-21T01:18:28;8.20;99.90
2465;DHT22;1244;54.326;10.074;2024-02-21T01:20:54;8.20;99.90
2465;DHT22;1244;54.326;10.074;2024-02-21T01:23:19;8.30;99.90
2465;DHT22;1244;54.326;10.074;2024-02-21T01:25:45;8.10;99.90
2465;DHT22;1244;54.326;10.074;2024-02-21T01:28:10;7.90;99.90
2465;DHT22;1244;54.326;10.074;2024-02-21T01:30:36;8.10;99.90
2465;DHT22;1244;54.326;10.074;2024-02-21T01:33:02;8.20;99.90
2465;DHT22;1244;54.326;10.074;2024-02-21T01:35:27;8.00;99.90
2465;DHT22;1244;54.326;10.074;2024-02-21T01:37:53;8.10;99.90
2465;DHT22;1244;54.326;10.074;2024-02-21T01:40:18;8.10;99.90
2465;DHT22;1244;54.326;10.074;2024-02-21T01:42:44;8.10;99.90
2465;DHT22;1244;54.326;10.074;2024-02-21T01:45:10;8.10;99.90
2465;DHT22;1244;54.326;10.074;2024-02-21T01:47:36;8.10;99.90
2465;DHT22;1244;54.326;10.074;2024-02-21T01:50:02;8.10;99.90
2465;DHT22;1244;54.326;10.074;2024-02-21T01:52:29;8.00;99.90
2465;DHT22;1244;54.326;10.074;2024-02-21T01:54:56;8.10;99.90
2465;DHT22;1244;54.326;10.074;2024-02-21T01:57:23;8.10;99.90
2465;DHT22;1244;54.326;10.074;2024-02-21T01:59:49;8.10;99.90
2465;DHT22;1244;54.326;10.074;2024-02-21T02:02:15;8.10;99.90
2465;DHT22;1244;54.326;10.074;2024-02-21T02:04:41;8.10;99.90
2465;DHT22;1244;54.326;10.074;2024-02-21T02:07:08;8.10;99.90
2465;DHT22;1244;54.326;10.074;2024-02-21T02:09:34;8.10;99.90
2465;DHT22;1244;54.326;10.074;2024-02-21T02:12:00;8.10;99.90
2465;DHT22;1244;54.326;10.074;2024-02-21T02:14:26;8.20;99.90
2465;DHT22;1244;54.326;10.074;2024-02-21T02:16:52;8.10;99.90
2465;DHT22;1244;54.326;10.074;2024-02-21T02:19:17;8.10;99.90
2465;DHT22;1244;54.326;10.074;2024-02-21T02:21:46;8.10;99.90
2465;DHT22;1244;54.326;10.074;2024-02-21T02:24:19;8.20;99.90
2465;DHT22;1244;54.326;10.074;2024-02-21T02:26:45;8.10;99.90
2465;DHT22;1244;54.326;10.074;2024-02-21T02:29:10;8.20;99.90
2465;DHT22;1244;54.326;10.074;2024-02-21T02:31:36;8.10;99.90
2465;DHT22;1244;54.326;10.074;2024-02-21T02:34:03;8.20;99.90
2465;DHT22;1244;54.326;10.074;2024-02-21T02:36:29;8.10;99.90
2465;DHT22;1244;54.326;10.074;2024-02-21T02:38:55;8.10;99.90
2465;DHT22;1244;54.326;10.074;2024-02-21T02:41:20;8.10;99.90
2465;DHT22;1244;54.326;10.074;2024-02-21T02:43:46;8.10;99.90
2465;DHT22;1244;54.326;10.074;2024-02-21T02:46:11;8.10;99.90
2465;DHT22;1244;54.326;10.074;2024-02-21T02:48:37;8.10;99.90
2465;DHT22;1244;54.326;10.074;2024-02-21T02:51:04;8.20;99.90
2465;DHT22;1244;54.326;10.074;2024-02-21T02:53:29;8.10;99.90
2465;DHT22;1244;54.326;10.074;2024-02-21T02:55:55;8.10;99.90
2465;DHT22;1244;54.326;10.074;2024-02-21T02:58:21;8.10;99.90
2465;DHT22;1244;54.326;10.074;2024-02-21T03:00:46;8.10;99.90
2465;DHT22;1244;54.326;10.074;2024-02-21T03:03:12;8.10;99.90
2465;DHT22;1244;54.326;10.074;2024-02-21T03:05:37;8.10;99.90
2465;DHT22;1244;54.326;10.074;2024-02-21T03:08:03;8.00;99.90
2465;DHT22;1244;54.326;10.074;2024-02-21T03:10:32;8.10;99.90
2465;DHT22;1244;54.326;10.074;2024-02-21T03:12:58;8.10;99.90
2465;DHT22;1244;54.326;10.074;2024-02-21T03:15:24;8.10;99.90
2465;DHT22;1244;54.326;10.074;2024-02-21T03:17:49;8.10;99.90
2465;DHT22;1244;54.326;10.074;2024-02-21T03:20:15;8.10;99.90
2465;DHT22;1244;54.326;10.074;2024-02-21T03:22:41;8.00;99.90
2465;DHT22;1244;54.326;10.074;2024-02-21T03:25:08;8.10;99.90
2465;DHT22;1244;54.326;10.074;2024-02-21T03:27:33;8.00;99.90
2465;DHT22;1244;54.326;10.074;2024-02-21T03:29:59;8.00;99.90
2465;DHT22;1244;54.326;10.074;2024-02-21T03:32:25;8.10;99.90
2465;DHT22;1244;54.326;10.074;2024-02-21T03:34:50;8.00;99.90
2465;DHT22;1244;54.326;10.074;2024-02-21T03:37:16;8.00;99.90
2465;DHT22;1244;54.326;10.074;2024-02-21T03:39:41;8.00;99.90
2465;DHT22;1244;54.326;10.074;2024-02-21T03:42:07;8.00;99.90
2465;DHT22;1244;54.326;10.074;2024-02-21T03:44:32;7.90;99.90
2465;DHT22;1244;54.326;10.074;2024-02-21T03:47:01;7.90;99.90
2465;DHT22;1244;54.326;10.074;2024-02-21T03:49:27;7.90;99.90
2465;DHT22;1244;54.326;10.074;2024-02-21T03:51:53;7.80;99.90
2465;DHT22;1244;54.326;10.074;2024-02-21T03:54:19;7.70;99.90
2465;DHT22;1244;54.326;10.074;2024-02-21T03:56:44;7.70;99.90
2465;DHT22;1244;54.326;10.074;2024-02-21T03:59:10;7.70;99.90
2465;DHT22;1244;54.326;10.074;2024-02-21T04:01:35;7.60;99.90
2465;DHT22;1244;54.326;10.074;2024-02-21T04:04:02;7.50;99.90
2465;DHT22;1244;54.326;10.074;2024-02-21T04:06:27;7.60;99.90
2465;DHT22;1244;54.326;10.074;2024-02-21T04:08:53;7.60;99.90
2465;DHT22;1244;54.326;10.074;2024-02-21T04:11:19;7.50;99.90
2465;DHT22;1244;54.326;10.074;2024-02-21T04:13:47;7.50;99.90
2465;DHT22;1244;54.326;10.074;2024-02-21T04:16:15;7.50;99.90
2465;DHT22;1244;54.326;10.074;2024-02-21T04:18:42;7.50;99.90
2465;DHT22;1244;54.326;10.074;2024-02-21T04:21:08;7.40;99.90
2465;DHT22;1244;54.326;10.074;2024-02-21T04:23:34;7.40;99.90
2465;DHT22;1244;54.326;10.074;2024-02-21T04:26:00;7.40;99.90
2465;DHT22;1244;54.326;10.074;2024-02-21T04:28:25;7.40;99.90
2465;DHT22;1244;54.326;10.074;2024-02-21T04:30:51;7.40;99.90
2465;DHT22;1244;54.326;10.074;2024-02-21T04:33:16;7.40;99.90
2465;DHT22;1244;54.326;10.074;2024-02-21T04:35:42;7.30;99.90
2465;DHT22;1244;54.326;10.074;2024-02-21T04:38:07;7.40;99.90
2465;DHT22;1244;54.326;10.074;2024-02-21T04:40:33;7.30;99.90
2465;DHT22;1244;54.326;10.074;2024-02-21T04:42:58;7.30;99.90
2465;DHT22;1244;54.326;10.074;2024-02-21T04:45:24;7.30;99.90
2465;DHT22;1244;54.326;10.074;2024-02-21T04:47:49;7.30;99.90
2465;DHT22;1244;54.326;10.074;2024-02-21T04:50:15;7.30;99.90
2465;DHT22;1244;54.326;10.074;2024-02-21T04:52:40;7.30;99.90
2465;DHT22;1244;54.326;10.074;2024-02-21T04:55:06;7.30;99.90
2465;DHT22;1244;54.326;10.074;2024-02-21T04:57:32;7.30;99.90
2465;DHT22;1244;54.326;10.074;2024-02-21T04:59:58;7.30;99.90
2465;DHT22;1244;54.326;10.074;2024-02-21T05:02:23;7.30;99.90
2465;DHT22;1244;54.326;10.074;2024-02-21T05:04:50;7.30;99.90
2465;DHT22;1244;54.326;10.074;2024-02-21T05:07:15;7.30;99.90
2465;DHT22;1244;54.326;10.074;2024-02-21T05:09:42;7.20;99.90
2465;DHT22;1244;54.326;10.074;2024-02-21T05:12:08;7.20;99.90
2465;DHT22;1244;54.326;10.074;2024-02-21T05:14:34;7.20;99.90
2465;DHT22;1244;54.326;10.074;2024-02-21T05:16:59;7.20;99.90
2465;DHT22;1244;54.326;10.074;2024-02-21T05:19:25;7.20;99.90
2465;DHT22;1244;54.326;10.074;2024-02-21T05:21:50;7.20;99.90
2465;DHT22;1244;54.326;10.074;2024-02-21T05:24:16;7.20;99.90
2465;DHT22;1244;54.326;10.074;2024-02-21T05:26:42;7.10;99.90
2465;DHT22;1244;54.326;10.074;2024-02-21T05:29:07;7.10;99.90
2465;DHT22;1244;54.326;10.074;2024-02-21T05:34:17;7.10;99.90
2465;DHT22;1244;54.326;10.074;2024-02-21T05:36:43;7.10;99.90
2465;DHT22;1244;54.326;10.074;2024-02-21T05:39:08;7.10;99.90
2465;DHT22;1244;54.326;10.074;2024-02-21T05:41:34;7.10;99.90
2465;DHT22;1244;54.326;10.074;2024-02-21T05:43:59;7.10;99.90
2465;DHT22;1244;54.326;10.074;2024-02-21T05:46:25;7.20;99.90
2465;DHT22;1244;54.326;10.074;2024-02-21T05:48:50;7.20;99.90
2465;DHT22;1244;54.326;10.074;2024-02-21T05:51:16;7.20;99.90
2465;DHT22;1244;54.326;10.074;2024-02-21T05:53:41;7.10;99.90
2465;DHT22;1244;54.326;10.074;2024-02-21T05:56:11;7.10;99.90
2465;DHT22;1244;54.326;10.074;2024-02-21T05:58:37;7.20;99.90
2465;DHT22;1244;54.326;10.074;2024-02-21T06:01:02;7.20;99.90
2465;DHT22;1244;54.326;10.074;2024-02-21T06:03:29;7.10;99.90
2465;DHT22;1244;54.326;10.074;2024-02-21T06:05:54;7.10;99.90
2465;DHT22;1244;54.326;10.074;2024-02-21T06:08:20;7.10;99.90
2465;DHT22;1244;54.326;10.074;2024-02-21T06:10:46;7.00;99.90
2465;DHT22;1244;54.326;10.074;2024-02-21T06:13:12;7.10;99.90
2465;DHT22;1244;54.326;10.074;2024-02-21T06:15:38;7.10;99.90
2465;DHT22;1244;54.326;10.074;2024-02-21T06:18:03;7.00;99.90
2465;DHT22;1244;54.326;10.074;2024-02-21T06:20:29;7.00;99.90
2465;DHT22;1244;54.326;10.074;2024-02-21T06:22:54;7.00;99.90
2465;DHT22;1244;54.326;10.074;2024-02-21T06:25:20;7.00;99.90
2465;DHT22;1244;54.326;10.074;2024-02-21T06:27:46;6.90;99.90
2465;DHT22;1244;54.326;10.074;2024-02-21T06:30:11;6.90;99.90
2465;DHT22;1244;54.326;10.074;2024-02-21T06:32:37;6.90;99.90
2465;DHT22;1244;54.326;10.074;2024-02-21T06:35:04;6.80;99.90
2465;DHT22;1244;54.326;10.074;2024-02-21T06:37:29;6.70;99.90
2465;DHT22;1244;54.326;10.074;2024-02-21T06:39:57;6.70;99.90
2465;DHT22;1244;54.326;10.074;2024-02-21T06:42:24;6.70;99.90
2465;DHT22;1244;54.326;10.074;2024-02-21T06:44:50;6.60;99.90
2465;DHT22;1244;54.326;10.074;2024-02-21T06:47:16;6.60;99.90
2465;DHT22;1244;54.326;10.074;2024-02-21T06:49:41;6.60;99.90
2465;DHT22;1244;54.326;10.074;2024-02-21T06:52:07;6.60;99.90
2465;DHT22;1244;54.326;10.074;2024-02-21T06:54:33;6.60;99.90
2465;DHT22;1244;54.326;10.074;2024-02-21T06:56:58;6.60;99.90
2465;DHT22;1244;54.326;10.074;2024-02-21T06:59:24;6.70;99.90
2465;DHT22;1244;54.326;10.074;2024-02-21T07:01:53;6.70;99.90
2465;DHT22;1244;54.326;10.074;2024-02-21T07:04:19;6.70;99.90
2465;DHT22;1244;54.326;10.074;2024-02-21T07:06:45;6.80;99.90
2465;DHT22;1244;54.326;10.074;2024-02-21T07:09:10;6.80;99.90
2465;DHT22;1244;54.326;10.074;2024-02-21T07:11:36;6.80;99.90
2465;DHT22;1244;54.326;10.074;2024-02-21T07:14:02;6.80;99.90
2465;DHT22;1244;54.326;10.074;2024-02-21T07:16:27;6.80;99.90
2465;DHT22;1244;54.326;10.074;2024-02-21T07:18:55;6.80;99.90
2465;DHT22;1244;54.326;10.074;2024-02-21T07:21:20;6.80;99.90
2465;DHT22;1244;54.326;10.074;2024-02-21T07:23:46;6.80;99.90
2465;DHT22;1244;54.326;10.074;2024-02-21T07:26:11;6.80;99.90
2465;DHT22;1244;54.326;10.074;2024-02-21T07:28:38;6.90;99.90
2465;DHT22;1244;54.326;10.074;2024-02-21T07:31:04;6.90;99.90
2465;DHT22;1244;54.326;10.074;2024-02-21T07:33:29;6.90;99.90
2465;DHT22;1244;54.326;10.074;2024-02-21T07:35:56;7.00;99.90
2465;DHT22;1244;54.326;10.074;2024-02-21T07:38:22;7.00;99.90
2465;DHT22;1244;54.326;10.074;2024-02-21T07:40:47;7.00;99.90
2465;DHT22;1244;54.326;10.074;2024-02-21T07:43:13;6.90;99.90
2465;DHT22;1244;54.326;10.074;2024-02-21T07:45:39;7.00;99.90
2465;DHT22;1244;54.326;10.074;2024-02-21T07:48:05;6.90;99.90
2465;DHT22;1244;54.326;10.074;2024-02-21T07:50:31;6.90;99.90
2465;DHT22;1244;54.326;10.074;2024-02-21T07:52:57;6.80;99.90
2465;DHT22;1244;54.326;10.074;2024-02-21T07:55:22;6.90;99.90
2465;DHT22;1244;54.326;10.074;2024-02-21T07:57:48;7.00;99.90
2465;DHT22;1244;54.326;10.074;2024-02-21T08:00:15;7.10;99.90
2465;DHT22;1244;54.326;10.074;2024-02-21T08:02:48;7.20;99.90
2465;DHT22;1244;54.326;10.074;2024-02-21T08:05:14;7.30;99.90
2465;DHT22;1244;54.326;10.074;2024-02-21T08:07:39;7.30;99.90
2465;DHT22;1244;54.326;10.074;2024-02-21T08:10:05;7.40;99.90
2465;DHT22;1244;54.326;10.074;2024-02-21T08:12:33;7.50;99.90
2465;DHT22;1244;54.326;10.074;2024-02-21T08:14:59;7.60;99.90
2465;DHT22;1244;54.326;10.074;2024-02-21T08:17:24;7.60;99.90
2465;DHT22;1244;54.326;10.074;2024-02-21T08:19:50;7.80;99.90
2465;DHT22;1244;54.326;10.074;2024-02-21T08:22:15;7.80;99.90
2465;DHT22;1244;54.326;10.074;2024-02-21T08:24:41;7.80;99.90
2465;DHT22;1244;54.326;10.074;2024-02-21T08:27:07;7.90;99.90
2465;DHT22;1244;54.326;10.074;2024-02-21T08:29:33;8.00;99.90
2465;DHT22;1244;54.326;10.074;2024-02-21T08:31:58;8.00;99.90
2465;DHT22;1244;54.326;10.074;2024-02-21T08:34:24;8.00;99.90
2465;DHT22;1244;54.326;10.074;2024-02-21T08:36:49;8.10;99.90
2465;DHT22;1244;54.326;10.074;2024-02-21T08:39:15;8.20;99.90
2465;DHT22;1244;54.326;10.074;2024-02-21T08:41:43;8.20;99.90
2465;DHT22;1244;54.326;10.074;2024-02-21T08:44:09;8.30;99.90
2465;DHT22;1244;54.326;10.074;2024-02-21T08:46:35;8.40;99.90
2465;DHT22;1244;54.326;10.074;2024-02-21T08:49:03;8.40;99.90
2465;DHT22;1244;54.326;10.074;2024-02-21T08:51:28;8.40;99.90
2465;DHT22;1244;54.326;10.074;2024-02-21T08:53:54;8.50;99.90
2465;DHT22;1244;54.326;10.074;2024-02-21T08:56:20;8.50;99.90
2465;DHT22;1244;54.326;10.074;2024-02-21T08:58:46;8.50;99.90
2465;DHT22;1244;54.326;10.074;2024-02-21T09:01:12;8.40;99.90
2465;DHT22;1244;54.326;10.074;2024-02-21T09:03:39;8.50;99.90
2465;DHT22;1244;54.326;10.074;2024-02-21T09:06:05;8.70;99.90
2465;DHT22;1244;54.326;10.074;2024-02-21T09:08:31;8.70;99.90
2465;DHT22;1244;54.326;10.074;2024-02-21T09:10:57;8.90;99.90
2465;DHT22;1244;54.326;10.074;2024-02-21T09:13:23;9.10;99.90
2465;DHT22;1244;54.326;10.074;2024-02-21T09:15:51;9.10;99.90
2465;DHT22;1244;54.326;10.074;2024-02-21T09:18:16;9.10;99.90
2465;DHT22;1244;54.326;10.074;2024-02-21T09:20:42;9.20;99.90
2465;DHT22;1244;54.326;10.074;2024-02-21T09:23:08;9.30;99.90
2465;DHT22;1244;54.326;10.074;2024-02-21T09:25:34;9.20;99.90
2465;DHT22;1244;54.326;10.074;2024-02-21T09:28:01;9.30;99.90
2465;DHT22;1244;54.326;10.074;2024-02-21T09:30:27;9.70;99.90
2465;DHT22;1244;54.326;10.074;2024-02-21T09:32:53;9.60;99.90
2465;DHT22;1244;54.326;10.074;2024-02-21T09:35:18;9.70;99.90
2465;DHT22;1244;54.326;10.074;2024-02-21T09:37:44;10.10;99.90
2465;DHT22;1244;54.326;10.074;2024-02-21T09:40:11;10.10;99.90
2465;DHT22;1244;54.326;10.074;2024-02-21T09:42:39;10.10;99.90
2465;DHT22;1244;54.326;10.074;2024-02-21T09:45:09;9.60;99.90
2465;DHT22;1244;54.326;10.074;2024-02-21T09:50:19;9.90;99.90
2465;DHT22;1244;54.326;10.074;2024-02-21T09:52:46;10.20;99.90
2465;DHT22;1244;54.326;10.074;2024-02-21T09:55:13;10.40;99.90
2465;DHT22;1244;54.326;10.074;2024-02-21T09:57:40;10.10;99.90
2465;DHT22;1244;54.326;10.074;2024-02-21T10:00:06;10.50;99.90
2465;DHT22;1244;54.326;10.074;2024-02-21T10:02:34;10.90;99.90
2465;DHT22;1244;54.326;10.074;2024-02-21T10:05:00;11.50;99.90
2465;DHT22;1244;54.326;10.074;2024-02-21T10:07:26;11.30;99.90
2465;DHT22;1244;54.326;10.074;2024-02-21T10:10:02;11.60;99.90
2465;DHT22;1244;54.326;10.074;2024-02-21T10:12:28;11.50;99.90
2465;DHT22;1244;54.326;10.074;2024-02-21T10:15:03;11.60;99.90
2465;DHT22;1244;54.326;10.074;2024-02-21T10:17:29;11.60;99.90
2465;DHT22;1244;54.326;10.074;2024-02-21T10:19:54;12.10;99.90
2465;DHT22;1244;54.326;10.074;2024-02-21T10:22:20;12.30;99.90
2465;DHT22;1244;54.326;10.074;2024-02-21T10:24:51;12.50;99.90
2465;DHT22;1244;54.326;10.074;2024-02-21T10:27:17;12.80;99.90
2465;DHT22;1244;54.326;10.074;2024-02-21T10:29:42;12.00;99.90
2465;DHT22;1244;54.326;10.074;2024-02-21T10:32:14;11.50;99.90
2465;DHT22;1244;54.326;10.074;2024-02-21T10:34:42;11.70;99.90
2465;DHT22;1244;54.326;10.074;2024-02-21T10:37:09;11.50;99.90
2465;DHT22;1244;54.326;10.074;2024-02-21T10:39:38;11.30;99.90
2465;DHT22;1244;54.326;10.074;2024-02-21T10:42:04;11.00;99.90
2465;DHT22;1244;54.326;10.074;2024-02-21T10:44:32;11.10;99.90
2465;DHT22;1244;54.326;10.074;2024-02-21T10:46:58;10.80;99.90
2465;DHT22;1244;54.326;10.074;2024-02-21T10:49:25;10.80;99.90
2465;DHT22;1244;54.326;10.074;2024-02-21T10:51:55;10.90;99.90
2465;DHT22;1244;54.326;10.074;2024-02-21T10:57:06;11.20;99.90
2465;DHT22;1244;54.326;10.074;2024-02-21T10:59:33;11.20;99.90
2465;DHT22;1244;54.326;10.074;2024-02-21T11:01:59;11.10;99.90
2465;DHT22;1244;54.326;10.074;2024-02-21T11:04:25;11.60;99.90
2465;DHT22;1244;54.326;10.074;2024-02-21T11:06:51;11.60;99.90
2465;DHT22;1244;54.326;10.074;2024-02-21T11:09:17;11.50;99.90
2465;DHT22;1244;54.326;10.074;2024-02-21T11:11:46;11.40;99.90
2465;DHT22;1244;54.326;10.074;2024-02-21T11:14:18;11.80;99.90
2465;DHT22;1244;54.326;10.074;2024-02-21T11:16:43;12.00;99.90
2465;DHT22;1244;54.326;10.074;2024-02-21T11:19:18;12.20;99.90
2465;DHT22;1244;54.326;10.074;2024-02-21T11:21:44;11.50;99.90
2465;DHT22;1244;54.326;10.074;2024-02-21T11:24:09;11.40;99.90
2465;DHT22;1244;54.326;10.074;2024-02-21T11:26:37;11.30;99.90
2465;DHT22;1244;54.326;10.074;2024-02-21T11:29:03;11.20;99.90
2465;DHT22;1244;54.326;10.074;2024-02-21T11:31:44;11.30;99.90
2465;DHT22;1244;54.326;10.074;2024-02-21T11:34:13;11.30;99.90
2465;DHT22;1244;54.326;10.074;2024-02-21T11:36:53;11.20;99.90
2465;DHT22;1244;54.326;10.074;2024-02-21T11:39:24;11.20;99.90
2465;DHT22;1244;54.326;10.074;2024-02-21T11:42:06;11.30;99.90
2465;DHT22;1244;54.326;10.074;2024-02-21T11:44:36;11.20;99.90
2465;DHT22;1244;54.326;10.074;2024-02-21T11:47:08;11.10;99.90
2465;DHT22;1244;54.326;10.074;2024-02-21T11:49:45;10.80;99.90
2465;DHT22;1244;54.326;10.074;2024-02-21T11:52:12;10.50;99.90
2465;DHT22;1244;54.326;10.074;2024-02-21T11:54:41;10.60;99.90
2465;DHT22;1244;54.326;10.074;2024-02-21T11:57:06;10.50;99.90
2465;DHT22;1244;54.326;10.074;2024-02-21T11:59:33;10.40;99.90
2465;DHT22;1244;54.326;10.074;2024-02-21T12:02:02;10.50;99.90
2465;DHT22;1244;54.326;10.074;2024-02-21T12:04:31;10.40;99.90
2465;DHT22;1244;54.326;10.074;2024-02-21T12:06:57;10.30;99.90
2465;DHT22;1244;54.326;10.074;2024-02-21T12:09:24;10.20;99.90
2465;DHT22;1244;54.326;10.074;2024-02-21T12:12:06;10.20;99.90
2465;DHT22;1244;54.326;10.074;2024-02-21T12:14:33;10.30;99.90
2465;DHT22;1244;54.326;10.074;2024-02-21T12:17:00;10.40;99.90
2465;DHT22;1244;54.326;10.074;2024-02-21T12:19:29;10.50;99.90
2465;DHT22;1244;54.326;10.074;2024-02-21T12:21:54;10.60;99.90
2465;DHT22;1244;54.326;10.074;2024-02-21T12:24:24;10.90;99.90
2465;DHT22;1244;54.326;10.074;2024-02-21T12:26:51;11.10;99.90
2465;DHT22;1244;54.326;10.074;2024-02-21T12:29:20;11.00;99.90
2465;DHT22;1244;54.326;10.074;2024-02-21T12:31:47;10.90;99.90
2465;DHT22;1244;54.326;10.074;2024-02-21T12:34:12;10.70;99.90
2465;DHT22;1244;54.326;10.074;2024-02-21T12:36:43;10.70;99.90
2465;DHT22;1244;54.326;10.074;2024-02-21T12:39:09;10.70;99.90
2465;DHT22;1244;54.326;10.074;2024-02-21T12:41:38;10.50;99.90
2465;DHT22;1244;54.326;10.074;2024-02-21T12:44:05;10.50;99.90
2465;DHT22;1244;54.326;10.074;2024-02-21T12:46:37;10.40;99.90
2465;DHT22;1244;54.326;10.074;2024-02-21T12:49:03;10.40;99.90
2465;DHT22;1244;54.326;10.074;2024-02-21T12:51:29;10.40;99.90
2465;DHT22;1244;54.326;10.074;2024-02-21T12:53:56;10.40;99.90
2465;DHT22;1244;54.326;10.074;2024-02-21T12:56:21;10.40;99.90
2465;DHT22;1244;54.326;10.074;2024-02-21T12:58:47;10.60;99.90
2465;DHT22;1244;54.326;10.074;2024-02-21T13:01:12;10.70;99.90
2465;DHT22;1244;54.326;10.074;2024-02-21T13:03:38;10.60;99.90
2465;DHT22;1244;54.326;10.074;2024-02-21T13:06:04;10.60;99.90
2465;DHT22;1244;54.326;10.074;2024-02-21T13:08:30;10.60;99.90
2465;DHT22;1244;54.326;10.074;2024-02-21T13:10:56;10.60;99.90
2465;DHT22;1244;54.326;10.074;2024-02-21T13:13:21;10.80;99.90
2465;DHT22;1244;54.326;10.074;2024-02-21T13:15:47;10.70;99.90
2465;DHT22;1244;54.326;10.074;2024-02-21T13:18:12;10.50;99.90
2465;DHT22;1244;54.326;10.074;2024-02-21T13:20:38;10.40;99.90
2465;DHT22;1244;54.326;10.074;2024-02-21T13:23:03;10.30;99.90
2465;DHT22;1244;54.326;10.074;2024-02-21T13:25:29;10.30;99.90
2465;DHT22;1244;54.326;10.074;2024-02-21T13:27:55;10.20;99.90
2465;DHT22;1244;54.326;10.074;2024-02-21T13:30:22;10.10;99.90
2465;DHT22;1244;54.326;10.074;2024-02-21T13:32:47;10.00;99.90
2465;DHT22;1244;54.326;10.074;2024-02-21T13:35:14;9.90;99.90
2465;DHT22;1244;54.326;10.074;2024-02-21T13:37:40;9.70;99.90
2465;DHT22;1244;54.326;10.074;2024-02-21T13:40:06;9.70;99.90
2465;DHT22;1244;54.326;10.074;2024-02-21T13:42:34;9.70;99.90
2465;DHT22;1244;54.326;10.074;2024-02-21T13:45:00;9.80;99.90
2465;DHT22;1244;54.326;10.074;2024-02-21T13:47:26;9.80;99.90
2465;DHT22;1244;54.326;10.074;2024-02-21T13:49:51;9.80;99.90
2465;DHT22;1244;54.326;10.074;2024-02-21T13:52:17;9.80;99.90
2465;DHT22;1244;54.326;10.074;2024-02-21T13:54:45;9.80;99.90
2465;DHT22;1244;54.326;10.074;2024-02-21T13:57:11;9.90;99.90
2465;DHT22;1244;54.326;10.074;2024-02-21T13:59:40;9.80;99.90
2465;DHT22;1244;54.326;10.074;2024-02-21T14:02:08;9.80;99.90
2465;DHT22;1244;54.326;10.074;2024-02-21T14:04:34;9.60;99.90
2465;DHT22;1244;54.326;10.074;2024-02-21T14:06:59;9.50;99.90
2465;DHT22;1244;54.326;10.074;2024-02-21T14:09:26;9.50;99.90
2465;DHT22;1244;54.326;10.074;2024-02-21T14:11:51;9.40;99.90
2465;DHT22;1244;54.326;10.074;2024-02-21T14:14:17;9.40;99.90
2465;DHT22;1244;54.326;10.074;2024-02-21T14:16:42;9.30;99.90
2465;DHT22;1244;54.326;10.074;2024-02-21T14:19:08;9.30;99.90
2465;DHT22;1244;54.326;10.074;2024-02-21T14:21:34;9.30;99.90
2465;DHT22;1244;54.326;10.074;2024-02-21T14:24:03;9.40;99.90
2465;DHT22;1244;54.326;10.074;2024-02-21T14:26:29;9.30;99.90
2465;DHT22;1244;54.326;10.074;2024-02-21T14:28:56;9.30;99.90
2465;DHT22;1244;54.326;10.074;2024-02-21T14:31:22;9.30;99.90
2465;DHT22;1244;54.326;10.074;2024-02-21T14:33:48;9.30;99.90
2465;DHT22;1244;54.326;10.074;2024-02-21T14:36:13;9.30;99.90
2465;DHT22;1244;54.326;10.074;2024-02-21T14:38:41;9.20;99.90
2465;DHT22;1244;54.326;10.074;2024-02-21T14:41:06;9.20;99.90
2465;DHT22;1244;54.326;10.074;2024-02-21T14:43:32;9.20;99.90
2465;DHT22;1244;54.326;10.074;2024-02-21T14:45:58;9.10;99.90
2465;DHT22;1244;54.326;10.074;2024-02-21T14:48:23;9.10;99.90
2465;DHT22;1244;54.326;10.074;2024-02-21T14:50:49;8.90;99.90
2465;DHT22;1244;54.326;10.074;2024-02-21T14:53:15;8.90;99.90
2465;DHT22;1244;54.326;10.074;2024-02-21T14:55:40;8.90;99.90
2465;DHT22;1244;54.326;10.074;2024-02-21T14:58:08;8.80;99.90
2465;DHT22;1244;54.326;10.074;2024-02-21T15:00:34;8.90;99.90
2465;DHT22;1244;54.326;10.074;2024-02-21T15:03:00;8.90;99.90
2465;DHT22;1244;54.326;10.074;2024-02-21T15:05:26;8.80;99.90
2465;DHT22;1244;54.326;10.074;2024-02-21T15:07:52;8.90;99.90
2465;DHT22;1244;54.326;10.074;2024-02-21T15:10:18;8.90;99.90
2465;DHT22;1244;54.326;10.074;2024-02-21T15:12:45;9.00;99.90
2465;DHT22;1244;54.326;10.074;2024-02-21T15:15:11;8.90;99.90
2465;DHT22;1244;54.326;10.074;2024-02-21T15:17:36;9.00;99.90
2465;DHT22;1244;54.326;10.074;2024-02-21T15:20:02;9.00;99.90
2465;DHT22;1244;54.326;10.074;2024-02-21T15:22:30;8.90;99.90
2465;DHT22;1244;54.326;10.074;2024-02-21T15:24:55;9.00;99.90
2465;DHT22;1244;54.326;10.074;2024-02-21T15:27:21;9.00;99.90
2465;DHT22;1244;54.326;10.074;2024-02-21T15:29:46;9.00;99.90
2465;DHT22;1244;54.326;10.074;2024-02-21T15:32:12;9.00;99.90
2465;DHT22;1244;54.326;10.074;2024-02-21T15:34:37;9.00;99.90
2465;DHT22;1244;54.326;10.074;2024-02-21T15:37:03;9.00;99.90
2465;DHT22;1244;54.326;10.074;2024-02-21T15:39:29;8.90;99.90
2465;DHT22;1244;54.326;10.074;2024-02-21T15:41:55;8.90;99.90
2465;DHT22;1244;54.326;10.074;2024-02-21T15:44:21;8.90;99.90
2465;DHT22;1244;54.326;10.074;2024-02-21T15:46:48;8.90;99.90
2465;DHT22;1244;54.326;10.074;2024-02-21T15:49:13;8.90;99.90
2465;DHT22;1244;54.326;10.074;2024-02-21T15:51:39;9.00;99.90
2465;DHT22;1244;54.326;10.074;2024-02-21T15:54:06;8.90;99.90
2465;DHT22;1244;54.326;10.074;2024-02-21T15:56:36;8.80;99.90
2465;DHT22;1244;54.326;10.074;2024-02-21T15:59:02;8.80;99.90